< < Back
Terminal Aerodrome Forecast


Current Version              Previous Versions:   1  2  3  4  5  6  7  8  9  

Terminal Aerodrome Forecast

010
FTUS42 KGSP 301200 AAA
TAFGSP
TAF AMD
KGSP 301238Z 3013/3112 07003KT P6SM FEW001
     FM301400 17006KT P6SM SCT050
     FM310600 00000KT P6SM BKN050=

Latest METAR

775
SAUS70 KWBC 310200 RRE
MTRGSP
METAR KGSP 310153Z 09004KT 10SM OVC065 26/21 A3014 RMK AO2 SLP193
T02610211


USA.gov is the U.S. government's official web portal to all federal, state and local government web resources and services.